Time;durP1;ratioP1;P1;durP2;ratioP2;P2;SDS_P1;SDS_P2;PMS_P1;PMS_P2;Temp;Humidity;BMP_temperature;BMP_pressure;BME280_temperature;BME280_humidity;BME280_pressure;Samples;Min_cycle;Max_cycle;Signal;HPM_P1;HPM_P2
2022/02/10 00:08:15;;;;;;;3.10;2.00;;;;;;;-0.86;84.13;98643.03;6228978;28;20386;-72
2022/02/10 00:17:44;;;;;;;6.03;2.40;;;;;;;-0.92;84.65;98642.31;6228355;28;20235;-72
2022/02/10 00:20:57;;;;;;;3.60;2.53;;;;;;;-0.96;84.68;98643.25;6226695;28;20405;-72
2022/02/10 00:34:15;;;;;;;5.60;2.60;;;;;;;-1.02;85.10;98638.19;6230137;28;20224;-72
2022/02/10 00:37:24;;;;;;;3.47;2.20;;;;;;;-1.05;85.13;98639.09;6227305;28;20366;-73
2022/02/10 00:40:29;;;;;;;2.87;2.10;;;;;;;-1.08;85.18;98636.56;6219904;28;20244;-73
2022/02/10 00:43:31;;;;;;;3.30;2.13;;;;;;;-1.14;85.32;98631.50;6215519;28;20324;-73
2022/02/10 00:46:34;;;;;;;3.00;2.50;;;;;;;-1.18;85.49;98646.22;6212697;28;20235;-73
2022/02/10 00:49:36;;;;;;;3.23;2.10;;;;;;;-1.19;85.45;98651.44;6204123;28;20228;-72
2022/02/10 00:52:42;;;;;;;3.17;2.40;;;;;;;-1.24;85.68;98645.50;6202278;28;20259;-73
2022/02/10 00:55:46;;;;;;;3.00;1.97;;;;;;;-1.30;85.64;98643.88;6201843;28;20438;-71
2022/02/10 00:58:57;;;;;;;2.43;2.23;;;;;;;-1.31;85.69;98641.31;6203326;28;20630;-72
2022/02/10 01:32:27;;;;;;;3.93;1.97;;;;;;;-1.61;86.01;98635.78;6226913;28;20235;-73
2022/02/10 01:35:29;;;;;;;7.03;2.00;;;;;;;-1.65;85.69;98638.44;6226289;28;20262;-73
2022/02/10 01:38:32;;;;;;;2.23;1.60;;;;;;;-1.71;85.71;98639.41;6217749;28;20236;-72
2022/02/10 01:58:13;;;;;;;3.00;2.03;;;;;;;-1.90;86.07;98607.75;6226713;28;20814;-73
2022/02/10 02:04:37;;;;;;;3.07;2.37;;;;;;;-1.92;86.13;98594.03;6224575;28;20239;-73
2022/02/10 02:07:39;;;;;;;2.40;1.80;;;;;;;-1.93;86.15;98601.81;6226180;28;20235;-72
2022/02/10 02:10:41;;;;;;;2.63;2.03;;;;;;;-1.93;86.42;98601.81;6220009;28;20247;-72
2022/02/10 02:13:44;;;;;;;3.63;1.97;;;;;;;-1.93;86.36;98601.81;6225368;28;20232;-71
2022/02/10 02:16:53;;;;;;;4.77;2.27;;;;;;;-1.93;86.51;98601.81;6225899;28;20254;-72
2022/02/10 02:19:55;;;;;;;3.77;2.03;;;;;;;-1.96;86.67;98594.94;6224381;28;20234;-72
2022/02/10 02:22:57;;;;;;;3.87;2.23;;;;;;;-2.01;86.52;98593.31;6224758;28;20777;-72
2022/02/10 02:26:06;;;;;;;3.33;1.87;;;;;;;-2.04;87.04;98586.47;6224215;28;20304;-71
2022/02/10 02:29:11;;;;;;;2.70;1.80;;;;;;;-2.04;86.71;98583.00;6211490;28;20283;-72
2022/02/10 02:32:20;;;;;;;3.17;1.90;;;;;;;-2.07;86.78;98591.66;6219325;28;20228;-71
2022/02/10 02:35:41;;;;;;;4.33;2.00;;;;;;;-2.10;86.63;98589.16;6223729;28;20790;-73
2022/02/10 03:04:09;;;;;;;3.43;1.77;;;;;;;-2.21;86.75;98585.00;6230954;28;20219;-72
2022/02/10 03:05:42;;;;;;;2.80;2.13;;;;;;;-2.32;86.71;98577.41;6227799;28;20228;-73
2022/02/10 03:08:54;;;;;;;2.80;1.70;;;;;;;-2.35;86.66;98580.91;6230286;28;20220;-72
2022/02/10 03:12:00;;;;;;;3.40;2.20;;;;;;;-2.37;86.41;98574.03;6210720;28;20665;-73
2022/02/10 03:15:06;;;;;;;3.67;2.60;;;;;;;-2.35;86.76;98567.13;6217867;28;20712;-72
2022/02/10 03:18:18;;;;;;;4.63;2.23;;;;;;;-2.30;87.29;98573.09;6214972;28;20708;-73
2022/02/10 04:05:07;;;;;;;3.13;2.27;;;;;;;-2.66;87.84;98558.94;6228346;28;20234;-72
2022/02/10 04:11:53;;;;;;;4.53;2.30;;;;;;;-2.73;87.89;98547.84;6215847;28;20970;-72
2022/02/10 04:15:15;;;;;;;3.13;1.97;;;;;;;-2.75;86.95;98543.56;6228659;28;20236;-73
2022/02/10 04:38:26;;;;;;;1.87;1.67;;;;;;;-2.89;86.91;98517.91;6228913;28;20250;-73
2022/02/10 05:33:52;;;;;;;2.40;1.77;;;;;;;-2.99;88.05;98516.31;6226585;28;20224;-73
2022/02/10 05:36:57;;;;;;;5.50;1.70;;;;;;;-3.00;88.24;98506.91;6203465;28;20240;-74
2022/02/10 05:40:04;;;;;;;3.17;1.90;;;;;;;-3.02;87.57;98500.91;6219607;28;20617;-73
2022/02/10 05:46:53;;;;;;;2.70;1.60;;;;;;;-3.07;87.81;98500.94;6223717;28;20648;-73
2022/02/10 06:56:22;;;;;;;3.10;2.30;;;;;;;-2.91;87.66;98495.59;6230230;28;20246;-71
2022/02/10 07:09:47;;;;;;;2.80;2.07;;;;;;;-2.75;87.16;98484.16;6226464;28;20227;-73
2022/02/10 08:50:15;;;;;;;5.17;4.23;;;;;;;2.44;89.56;98412.19;6203738;28;20532;-72
2022/02/10 08:56:54;;;;;;;4.60;3.87;;;;;;;3.30;88.14;98413.22;6203961;28;20243;-74
2022/02/10 09:00:19;;;;;;;3.43;2.90;;;;;;;3.76;86.10;98407.03;6203155;28;20240;-74
2022/02/10 10:00:03;;;;;;;1.67;1.50;;;;;;;9.72;59.47;98348.63;6226302;28;20252;-73
2022/02/10 10:02:46;;;;;;;1.20;0.93;;;;;;;10.10;58.21;98340.75;6221402;28;20234;-73
2022/02/10 10:09:54;;;;;;;2.63;1.67;;;;;;;10.58;56.14;98328.66;6205107;28;20319;-72
2022/02/10 10:26:19;;;;;;;1.70;1.40;;;;;;;11.04;54.55;98307.78;6227237;28;20298;-73
2022/02/10 10:44:34;;;;;;;1.97;1.20;;;;;;;11.35;53.09;98287.88;6221751;28;20589;-74
2022/02/10 10:50:26;;;;;;;1.40;1.10;;;;;;;12.12;50.69;98254.72;6225568;28;20233;-73
2022/02/10 10:56:36;;;;;;;1.70;1.10;;;;;;;12.29;48.92;98237.53;6225698;28;20241;-73
2022/02/10 11:37:37;;;;;;;1.70;1.07;;;;;;;13.56;43.87;98148.56;6229963;28;20241;-72
2022/02/10 11:41:43;;;;;;;1.40;1.27;;;;;;;13.82;44.77;98149.81;6228535;28;20239;-73
2022/02/10 11:45:54;;;;;;;1.43;0.90;;;;;;;13.92;42.68;98147.22;6228346;28;20289;-73
2022/02/10 13:27:38;;;;;;;1.07;0.97;;;;;;;20.26;22.83;98019.19;6226500;28;20354;-72
2022/02/10 14:13:50;;;;;;;1.93;1.33;;;;;;;14.90;29.79;98027.78;6223907;28;20248;-73
2022/02/10 14:17:02;;;;;;;1.60;1.10;;;;;;;14.51;30.93;98037.56;6225709;28;20235;-73
2022/02/10 14:20:32;;;;;;;1.43;1.20;;;;;;;14.03;31.98;98031.19;6224747;28;20232;-73
2022/02/10 14:26:46;;;;;;;2.00;1.27;;;;;;;13.65;32.49;98023.94;6223491;28;20235;-72
2022/02/10 14:29:48;;;;;;;3.80;1.53;;;;;;;13.67;33.12;98032.59;6225466;28;20230;-72
2022/02/10 14:32:51;;;;;;;3.03;1.40;;;;;;;13.68;32.52;98020.16;6225991;28;20590;-73
2022/02/10 14:36:02;;;;;;;5.73;1.33;;;;;;;13.66;33.00;98016.84;6213899;28;20251;-73
2022/02/10 14:39:37;;;;;;;2.77;1.20;;;;;;;13.43;33.53;98025.94;6223890;28;20538;-73
2022/02/10 15:30:23;;;;;;;2.77;1.50;;;;;;;11.88;37.18;98023.84;6224136;28;20580;-73
2022/02/10 16:19:25;;;;;;;2.37;1.17;;;;;;;10.28;45.53;98001.88;6229825;28;20279;-72
2022/02/10 16:22:36;;;;;;;2.27;1.17;;;;;;;9.95;47.08;98001.69;6228176;28;20244;-72
2022/02/10 16:25:47;;;;;;;1.93;1.20;;;;;;;9.68;47.44;98006.31;6225971;28;20483;-72
2022/02/10 16:29:02;;;;;;;1.17;0.97;;;;;;;9.39;49.56;98001.31;6228776;28;20241;-72
2022/02/10 16:32:04;;;;;;;1.87;1.27;;;;;;;9.24;48.13;98005.88;6228084;28;20232;-71
2022/02/10 16:35:11;;;;;;;1.70;1.20;;;;;;;9.11;49.56;98009.44;6229546;28;20228;-72
2022/02/10 16:38:19;;;;;;;3.43;1.60;;;;;;;9.11;47.88;98001.56;6227110;28;20333;-72
2022/02/10 16:41:27;;;;;;;3.87;1.60;;;;;;;9.18;48.13;98000.19;6227466;28;20278;-72
2022/02/10 16:44:34;;;;;;;2.30;1.30;;;;;;;9.01;49.49;98003.13;6218198;28;20291;-73
2022/02/10 16:47:42;;;;;;;1.57;1.13;;;;;;;8.71;50.23;97999.00;6219531;28;20267;-73
2022/02/10 16:50:45;;;;;;;2.00;1.20;;;;;;;8.45;52.00;98007.81;6202800;28;20232;-73
2022/02/10 16:54:00;;;;;;;3.43;1.20;;;;;;;8.13;52.50;98004.66;6186668;28;20232;-72
2022/02/10 16:57:19;;;;;;;2.47;1.30;;;;;;;7.89;53.67;98001.81;6201643;28;20220;-72
2022/02/10 17:03:55;;;;;;;3.27;1.50;;;;;;;7.49;55.08;98005.28;6203566;28;20238;-73
2022/02/10 17:17:35;;;;;;;2.80;1.30;;;;;;;6.86;57.96;98013.56;6226389;28;20235;-73
2022/02/10 17:20:46;;;;;;;2.37;1.13;;;;;;;6.65;58.35;98013.06;6227447;28;20237;-72
2022/02/10 17:27:22;;;;;;;1.70;1.27;;;;;;;6.38;59.72;98025.16;6202526;28;20214;-73
2022/02/10 17:30:58;;;;;;;3.37;1.50;;;;;;;6.27;61.24;98021.38;6203708;28;20240;-73
2022/02/10 17:34:21;;;;;;;4.70;2.10;;;;;;;6.16;61.79;98020.31;6228040;28;20744;-73
2022/02/10 17:41:17;;;;;;;5.10;3.00;;;;;;;6.09;62.39;98037.31;6226906;28;20235;-72
2022/02/10 17:44:21;;;;;;;2.57;1.97;;;;;;;6.03;62.42;98035.03;6225000;28;20230;-73
2022/02/10 17:54:04;;;;;;;1.97;1.57;;;;;;;5.90;63.86;98061.03;6226226;28;20231;-72
2022/02/10 17:57:07;;;;;;;1.83;1.23;;;;;;;5.81;63.46;98064.16;6226653;28;20244;-72
2022/02/10 18:00:09;;;;;;;2.47;1.50;;;;;;;5.72;63.48;98068.13;6224994;28;20216;-72
2022/02/10 18:03:15;;;;;;;3.63;2.00;;;;;;;5.69;63.71;98073.50;6226463;28;20310;-73
2022/02/10 18:06:31;;;;;;;2.70;1.80;;;;;;;5.62;63.97;98060.84;6225840;28;20219;-72
2022/02/10 18:10:32;;;;;;;1.83;1.20;;;;;;;5.63;64.09;98060.75;6224240;28;20229;-73
2022/02/10 18:16:16;;;;;;;2.20;1.47;;;;;;;5.69;63.55;98056.97;6226133;28;20264;-74
2022/02/10 18:19:26;;;;;;;2.97;1.60;;;;;;;5.68;64.14;98064.00;6227147;28;20710;-73
2022/02/10 18:29:31;;;;;;;2.17;1.37;;;;;;;5.47;64.52;98073.00;6236010;28;20234;-73
2022/02/10 19:09:37;;;;;;;2.70;1.70;;;;;;;4.20;67.99;98120.41;6225134;28;22742;-72
2022/02/10 19:12:58;;;;;;;2.87;1.83;;;;;;;4.13;68.34;98126.00;6224112;28;20240;-73
2022/02/10 19:16:00;;;;;;;3.60;1.97;;;;;;;4.04;68.63;98133.34;6225803;28;20248;-73
2022/02/10 19:19:22;;;;;;;3.33;1.80;;;;;;;3.95;68.65;98133.78;6224712;28;20251;-72
2022/02/10 19:22:25;;;;;;;3.67;1.93;;;;;;;3.89;69.50;98136.69;6225146;28;20240;-73
2022/02/10 19:25:28;;;;;;;3.93;1.90;;;;;;;3.81;69.29;98145.78;6224984;28;20241;-71
2022/02/10 19:28:30;;;;;;;2.57;1.70;;;;;;;3.76;69.53;98142.53;6224498;28;20719;-73
2022/02/10 19:31:36;;;;;;;3.60;1.67;;;;;;;3.73;69.75;98151.34;6223645;28;20257;-73
2022/02/10 19:34:38;;;;;;;3.57;2.03;;;;;;;3.69;70.36;98155.84;6224696;28;20235;-72
2022/02/10 19:38:00;;;;;;;3.27;1.93;;;;;;;3.67;69.90;98157.69;6200539;28;20232;-72
2022/02/10 19:41:02;;;;;;;5.77;2.00;;;;;;;3.60;70.44;98158.88;6210523;28;20270;-72
2022/02/10 19:44:26;;;;;;;3.30;2.10;;;;;;;3.50;70.34;98160.19;6222598;28;20745;-72
2022/02/10 19:47:31;;;;;;;3.53;2.00;;;;;;;3.51;70.98;98168.88;6226446;28;20238;-72
2022/02/10 19:50:33;;;;;;;3.40;2.30;;;;;;;3.46;70.79;98161.25;6229655;28;20226;-73
2022/02/10 19:53:36;;;;;;;3.77;2.50;;;;;;;3.38;71.06;98172.94;6228074;28;20233;-73
2022/02/10 19:56:40;;;;;;;3.40;2.20;;;;;;;3.30;71.34;98165.44;6229045;28;20241;-73
2022/02/10 19:59:42;;;;;;;3.60;2.20;;;;;;;3.24;71.36;98163.09;6227872;28;20247;-72
2022/02/10 20:02:44;;;;;;;4.80;3.50;;;;;;;3.12;71.62;98158.41;6229172;28;20228;-73
2022/02/10 20:05:52;;;;;;;6.10;2.70;;;;;;;3.03;71.71;98162.25;6226909;28;20237;-72
2022/02/10 20:08:54;;;;;;;7.47;3.40;;;;;;;2.93;72.26;98171.38;6227446;28;20234;-72
2022/02/10 20:11:57;;;;;;;9.03;4.20;;;;;;;2.78;72.30;98169.44;6218586;28;20227;-72
2022/02/10 20:15:00;;;;;;;8.30;3.43;;;;;;;2.71;72.78;98167.97;6223879;28;20322;-73
2022/02/10 20:18:05;;;;;;;6.60;4.07;;;;;;;2.62;73.15;98163.97;6226369;28;20241;-73
2022/02/10 20:21:10;;;;;;;9.97;3.63;;;;;;;2.51;73.07;98169.63;6227727;28;20299;-72
2022/02/10 20:24:12;;;;;;;8.57;3.50;;;;;;;2.43;73.37;98161.28;6227093;28;20217;-72
2022/02/10 20:27:15;;;;;;;5.60;3.47;;;;;;;2.36;73.81;98166.78;6227449;28;20210;-72
2022/02/10 20:30:18;;;;;;;8.60;4.10;;;;;;;2.23;73.81;98164.66;6209288;28;20473;-71
2022/02/10 20:33:24;;;;;;;9.50;4.60;;;;;;;2.17;74.26;98162.31;6227853;28;21683;-74
2022/02/10 20:36:26;;;;;;;11.10;5.67;;;;;;;2.10;74.83;98165.19;6229384;28;20229;-74
2022/02/10 20:39:29;;;;;;;7.40;3.60;;;;;;;2.05;74.76;98161.94;6202753;28;20366;-72
2022/02/10 20:42:33;;;;;;;6.90;3.93;;;;;;;1.97;74.77;98164.84;6222604;28;20258;-71
2022/02/10 20:45:36;;;;;;;4.73;2.70;;;;;;;1.85;74.79;98160.94;6227409;28;20240;-72
2022/02/10 20:48:40;;;;;;;5.40;3.07;;;;;;;1.80;75.28;98162.84;6228498;28;20233;-71
2022/02/10 20:51:51;;;;;;;5.43;3.13;;;;;;;1.76;75.32;98160.44;6242999;28;20595;-71
2022/02/10 20:54:53;;;;;;;7.17;3.13;;;;;;;1.64;75.41;98156.53;6226909;28;20248;-72
2022/02/10 20:57:56;;;;;;;7.33;3.27;;;;;;;1.61;75.66;98159.25;6226664;28;20229;-72
2022/02/10 21:01:01;;;;;;;4.87;2.93;;;;;;;1.51;75.92;98151.81;6228427;28;20233;-72
2022/02/10 21:04:04;;;;;;;8.57;3.77;;;;;;;1.48;75.76;98152.81;6227765;28;20239;-71
2022/02/10 21:10:14;;;;;;;7.30;4.17;;;;;;;1.40;76.68;98154.81;6222681;28;20241;-73
2022/02/10 21:13:16;;;;;;;8.40;4.03;;;;;;;1.35;77.02;98154.16;6219180;28;20250;-73
2022/02/10 21:16:19;;;;;;;9.17;3.43;;;;;;;1.31;76.74;98145.59;6227027;28;20228;-72
2022/02/10 21:19:23;;;;;;;5.57;2.60;;;;;;;1.27;76.83;98143.19;6227177;28;20876;-71
2022/02/10 21:22:27;;;;;;;5.93;2.47;;;;;;;1.30;77.27;98143.09;6227188;28;20239;-72
2022/02/10 21:25:33;;;;;;;6.07;2.70;;;;;;;1.32;77.56;98133.44;6225982;28;20233;-72
2022/02/10 21:28:38;;;;;;;5.63;2.60;;;;;;;1.35;77.68;98136.81;6226026;28;20231;-73
2022/02/10 21:31:45;;;;;;;6.00;3.00;;;;;;;1.39;77.45;98132.34;6227175;28;20236;-72
2022/02/10 21:35:03;;;;;;;4.97;2.50;;;;;;;1.38;77.47;98130.66;6217750;28;20316;-73
2022/02/10 22:17:08;;;;;;;4.50;2.50;;;;;;;1.07;79.87;98146.47;6228482;28;20229;-71
2022/02/10 22:20:19;;;;;;;4.50;2.80;;;;;;;1.00;79.92;98147.56;6208032;28;20309;-72
2022/02/10 22:23:24;;;;;;;5.57;2.47;;;;;;;1.00;79.51;98158.81;6225530;28;20576;-72
2022/02/10 22:26:30;;;;;;;4.87;2.90;;;;;;;1.04;79.82;98157.81;6224823;28;20236;-73
2022/02/10 22:29:38;;;;;;;6.53;2.80;;;;;;;1.12;80.27;98160.16;6208878;28;20228;-72
2022/02/10 22:33:48;;;;;;;4.93;2.63;;;;;;;1.20;80.29;98160.72;6228552;28;20232;-73
2022/02/10 22:36:15;;;;;;;6.13;2.77;;;;;;;1.29;79.69;98160.44;6224173;28;20247;-72
2022/02/10 22:39:17;;;;;;;6.43;2.70;;;;;;;1.39;79.98;98160.94;6202011;28;20252;-72
2022/02/10 22:42:23;;;;;;;3.57;2.33;;;;;;;1.48;80.20;98158.88;6214669;28;20702;-72
2022/02/10 22:45:25;;;;;;;5.10;2.53;;;;;;;1.57;80.51;98156.81;6241277;28;20286;-72
2022/02/10 22:48:27;;;;;;;3.77;2.73;;;;;;;1.66;80.01;98153.88;6225301;28;20306;-72
2022/02/10 22:51:32;;;;;;;3.53;3.03;;;;;;;1.75;80.06;98151.78;6224589;28;20243;-73
2022/02/10 22:54:34;;;;;;;2.77;2.37;;;;;;;1.83;80.17;98159.28;6225843;28;20224;-73
2022/02/10 22:57:37;;;;;;;5.57;2.70;;;;;;;1.92;79.97;98158.09;6226233;28;20387;-72
2022/02/10 23:00:59;;;;;;;12.33;2.50;;;;;;;2.03;79.88;98151.56;6225721;28;20228;-73
2022/02/10 23:04:04;;;;;;;6.23;2.83;;;;;;;2.12;80.02;98146.00;6225619;28;20236;-71
2022/02/10 23:07:09;;;;;;;7.83;2.57;;;;;;;2.19;79.74;98152.69;6225149;28;20233;-70
2022/02/10 23:13:34;;;;;;;4.30;2.37;;;;;;;2.31;79.67;98145.28;6216457;28;20251;-73
2022/02/10 23:16:37;;;;;;;5.23;2.47;;;;;;;2.37;79.62;98138.09;6225321;28;20252;-72
2022/02/10 23:19:39;;;;;;;6.23;2.47;;;;;;;2.42;79.59;98143.09;6207430;28;20240;-73
2022/02/10 23:22:41;;;;;;;3.17;2.70;;;;;;;2.47;79.52;98146.38;6210782;28;20246;-72
2022/02/10 23:25:46;;;;;;;3.77;1.90;;;;;;;2.51;79.44;98138.34;6228598;28;20233;-72
2022/02/10 23:28:51;;;;;;;4.20;1.90;;;;;;;2.53;79.62;98144.38;6230339;28;20234;-72
2022/02/10 23:31:53;;;;;;;4.10;2.50;;;;;;;2.54;79.42;98137.41;6203772;28;20233;-73
2022/02/10 23:34:57;;;;;;;6.13;2.67;;;;;;;2.56;79.34;98138.19;6226798;28;20229;-72
2022/02/10 23:37:59;;;;;;;3.63;2.10;;;;;;;2.60;79.46;98139.75;6221228;28;20241;-72
2022/02/10 23:44:21;;;;;;;3.73;2.00;;;;;;;2.62;79.24;98130.09;6229664;28;20324;-73
2022/02/10 23:47:24;;;;;;;2.80;2.20;;;;;;;2.62;79.41;98132.72;6244924;28;20476;-72
2022/02/10 23:50:28;;;;;;;2.97;2.10;;;;;;;2.62;79.65;98126.66;6228103;28;20231;-73
2022/02/10 23:53:31;;;;;;;5.50;2.67;;;;;;;2.63;79.70;98121.38;6230850;28;20257;-72
2022/02/10 23:56:40;;;;;;;4.10;2.37;;;;;;;2.66;79.52;98123.88;6228814;28;20325;-72
